createdAt,value
2022-11-15T06:44:50.929Z,1000.75
2022-11-15T06:45:50.919Z,1000.78
2022-11-15T06:46:50.918Z,1000.83
2022-11-15T06:47:50.916Z,1000.83
2022-11-15T06:48:50.911Z,1000.86
2022-11-15T06:49:50.927Z,1000.86
2022-11-15T06:50:50.927Z,1000.85
2022-11-15T06:51:50.984Z,1000.86
2022-11-15T06:52:50.942Z,1000.9
2022-11-15T06:53:50.950Z,1000.88
2022-11-15T06:54:50.941Z,1000.91
2022-11-15T06:55:55.152Z,1000.88
2022-11-15T06:56:50.964Z,1000.91
2022-11-15T06:57:50.954Z,1000.93
2022-11-15T06:58:50.974Z,1000.9
2022-11-15T06:59:50.972Z,1000.93
2022-11-15T07:00:51.023Z,1000.91
2022-11-15T07:01:50.990Z,1000.92
2022-11-15T07:02:51.047Z,1000.88
2022-11-15T07:03:51.011Z,1000.93
2022-11-15T07:04:51.000Z,1000.87
2022-11-15T07:05:51.005Z,1000.86
2022-11-15T07:06:51.028Z,1000.87
2022-11-15T07:07:51.010Z,1000.92
2022-11-15T07:08:51.028Z,1000.92
2022-11-15T07:09:51.024Z,1000.9
2022-11-15T07:10:51.037Z,1000.89
2022-11-15T07:11:51.040Z,1000.89
2022-11-15T07:12:51.035Z,1000.91
2022-11-15T07:13:51.036Z,1000.9
2022-11-15T07:14:51.044Z,1000.88
2022-11-15T07:15:51.055Z,1000.93
2022-11-15T07:16:51.082Z,1000.93
2022-11-15T07:17:51.487Z,1000.99
2022-11-15T07:18:51.141Z,1000.97
2022-11-15T07:19:51.180Z,1001.01
2022-11-15T07:20:51.078Z,1001
2022-11-15T07:21:51.081Z,1001.03
2022-11-15T07:22:51.090Z,1001.03
2022-11-15T07:23:51.091Z,1001
2022-11-15T07:24:51.100Z,1001.04
2022-11-15T07:25:51.103Z,1000.97
2022-11-15T07:26:51.117Z,1000.95
2022-11-15T07:27:51.115Z,1000.92
2022-11-15T07:28:51.120Z,1000.94
2022-11-15T07:29:51.118Z,1000.95
2022-11-15T07:30:51.127Z,1001
2022-11-15T07:31:51.140Z,1000.96
2022-11-15T07:32:51.277Z,1000.95
2022-11-15T07:33:51.144Z,1000.98
2022-11-15T07:34:51.144Z,1000.94
2022-11-15T07:35:51.159Z,1001
2022-11-15T07:36:51.246Z,1000.94
2022-11-15T07:37:51.175Z,1000.94
2022-11-15T07:38:51.288Z,1000.97
2022-11-15T07:39:51.241Z,1000.94
2022-11-15T07:40:51.337Z,1000.95
2022-11-15T07:41:51.243Z,1000.93
2022-11-15T07:42:51.223Z,1000.97
2022-11-15T07:43:51.216Z,1000.99
2022-11-15T07:44:51.212Z,1000.98
2022-11-15T07:45:54.708Z,1000.96
2022-11-15T07:46:51.224Z,1001
2022-11-15T07:47:51.318Z,1001.03
2022-11-15T07:48:51.261Z,1001.04
2022-11-15T07:49:51.245Z,1001.05
2022-11-15T07:50:51.248Z,1001.08
2022-11-15T07:51:51.256Z,1001.06
2022-11-15T07:52:51.275Z,1001.09
2022-11-15T07:53:51.270Z,1001.08
2022-11-15T07:54:51.278Z,1001.18
2022-11-15T07:55:51.272Z,1001.17
2022-11-15T07:56:51.306Z,1001.16
2022-11-15T07:57:51.295Z,1001.11
2022-11-15T07:58:51.295Z,1001.11
2022-11-15T07:59:52.521Z,1001.1
2022-11-15T08:00:51.320Z,1001.14
2022-11-15T08:01:51.467Z,1001.12
2022-11-15T08:02:51.471Z,1001.12
2022-11-15T08:03:51.323Z,1001.1
2022-11-15T08:04:51.557Z,1001.12
2022-11-15T08:05:51.350Z,1001.05
2022-11-15T08:06:51.550Z,1001.03
2022-11-15T08:07:52.770Z,1001.05
2022-11-15T08:08:51.379Z,1001.04
2022-11-15T08:09:51.388Z,1001.06
2022-11-15T08:10:51.408Z,1001.08
2022-11-15T08:11:51.396Z,1001.13
2022-11-15T08:12:51.432Z,1001.07
2022-11-15T08:13:51.402Z,1001.09
2022-11-15T08:14:51.407Z,1001.09
2022-11-15T08:15:56.359Z,1001.12
2022-11-15T08:16:51.453Z,1001.11
2022-11-15T08:17:51.429Z,1001.04
2022-11-15T08:18:51.447Z,1001.04
2022-11-15T08:19:51.453Z,1001.06
2022-11-15T08:20:51.539Z,1001.07
2022-11-15T08:21:51.472Z,1001.1
2022-11-15T08:22:51.484Z,1001.07
2022-11-15T08:23:51.489Z,1001.08
2022-11-15T08:24:51.498Z,1001.09
2022-11-15T08:25:51.496Z,1001.08
2022-11-15T08:26:51.556Z,1001.05
2022-11-15T08:27:51.522Z,1001.03
2022-11-15T08:28:51.523Z,1001
2022-11-15T08:29:53.385Z,1001
2022-11-15T08:30:51.539Z,1001.01
2022-11-15T08:31:51.546Z,1000.98
2022-11-15T08:32:51.555Z,1000.99
2022-11-15T08:33:51.553Z,1000.96
2022-11-15T08:34:51.571Z,1000.96
2022-11-15T08:35:51.582Z,1000.94
2022-11-15T08:36:51.600Z,1000.94
2022-11-15T08:37:51.592Z,1000.91
2022-11-15T08:38:51.606Z,1000.9
2022-11-15T08:39:51.602Z,1000.88
2022-11-15T08:40:51.620Z,1000.89
2022-11-15T08:41:51.618Z,1000.83
2022-11-15T08:42:51.639Z,1000.8
2022-11-15T08:43:51.642Z,1000.8
2022-11-15T08:44:51.640Z,1000.86
2022-11-15T08:45:51.658Z,1000.82
2022-11-15T08:46:51.659Z,1000.83
2022-11-15T08:47:54.327Z,1000.81
2022-11-15T08:48:51.681Z,1000.75
2022-11-15T08:49:51.694Z,1000.78
2022-11-15T08:50:51.705Z,1000.76
2022-11-15T08:51:51.718Z,1000.81
2022-11-15T08:52:51.756Z,1000.82
2022-11-15T08:53:51.741Z,1000.8
2022-11-15T08:54:52.338Z,1000.84
2022-11-15T08:55:51.744Z,1000.89
2022-11-15T08:56:51.765Z,1000.87
2022-11-15T08:57:51.774Z,1000.89
2022-11-15T08:58:51.767Z,1000.91
2022-11-15T08:59:51.797Z,1000.85
2022-11-15T09:00:51.803Z,1000.82
2022-11-15T09:01:51.880Z,1000.82
2022-11-15T09:02:51.821Z,1000.8
2022-11-15T09:03:51.845Z,1000.83
2022-11-15T09:04:51.823Z,1000.82
2022-11-15T09:05:52.435Z,1000.85
2022-11-15T09:06:51.896Z,1000.82
2022-11-15T09:07:51.855Z,1000.78
2022-11-15T09:08:51.980Z,1000.81
2022-11-15T09:09:51.897Z,1000.77
2022-11-15T09:10:51.880Z,1000.78
2022-11-15T09:11:51.910Z,1000.76
2022-11-15T09:12:51.906Z,1000.74
2022-11-15T09:13:51.926Z,1000.74
2022-11-15T09:14:52.535Z,1000.74
2022-11-15T09:15:52.544Z,1000.77
2022-11-15T09:16:51.958Z,1000.71
2022-11-15T09:17:51.958Z,1000.75
2022-11-15T09:18:51.964Z,1000.7
2022-11-15T09:19:51.983Z,1000.69
2022-11-15T09:20:51.983Z,1000.68
2022-11-15T09:21:51.989Z,1000.7
2022-11-15T09:22:52.002Z,1000.71
2022-11-15T09:23:52.027Z,1000.71
2022-11-15T09:24:52.073Z,1000.81
2022-11-15T09:25:52.045Z,1000.78
2022-11-15T09:26:52.108Z,1000.82
2022-11-15T09:27:52.090Z,1000.81
2022-11-15T09:28:52.072Z,1000.8
2022-11-15T09:29:52.082Z,1000.83
2022-11-15T09:30:52.081Z,1000.81
2022-11-15T09:31:52.103Z,1000.81
2022-11-15T09:32:52.109Z,1000.8
2022-11-15T09:33:52.112Z,1000.81
2022-11-15T09:34:52.133Z,1000.79
2022-11-15T09:35:52.141Z,1000.79
2022-11-15T09:36:52.150Z,1000.76
2022-11-15T09:37:56.071Z,1000.71
2022-11-15T09:38:52.163Z,1000.74
2022-11-15T09:39:52.173Z,1000.71
2022-11-15T09:40:52.235Z,1000.7
2022-11-15T09:41:52.193Z,1000.65
2022-11-15T09:42:52.206Z,1000.7
2022-11-15T09:43:52.242Z,1000.66
2022-11-15T09:44:52.234Z,1000.69
2022-11-15T09:45:52.248Z,1000.63
2022-11-15T09:46:52.256Z,1000.65
2022-11-15T09:47:52.463Z,1000.57
2022-11-15T09:48:52.384Z,1000.59
2022-11-15T09:49:56.587Z,1000.58
2022-11-15T09:50:52.782Z,1000.56
2022-11-15T09:51:52.427Z,1000.54
2022-11-15T09:52:52.648Z,1000.61
2022-11-15T09:55:00.336Z,1000.56
2022-11-15T09:56:00.375Z,1000.57
2022-11-15T09:57:00.360Z,1000.57
2022-11-15T09:58:00.371Z,1000.57
2022-11-15T09:59:00.385Z,1000.56
2022-11-15T10:00:07.806Z,1000.55
2022-11-15T10:01:00.520Z,1000.53
2022-11-15T10:02:00.421Z,1000.56
2022-11-15T10:03:00.438Z,1000.53
2022-11-15T10:04:00.440Z,1000.53
2022-11-15T10:05:00.462Z,1000.48
2022-11-15T10:06:00.463Z,1000.47
2022-11-15T10:07:00.569Z,1000.48
2022-11-15T10:08:00.489Z,1000.52
2022-11-15T10:09:00.500Z,1000.48
2022-11-15T10:10:01.125Z,1000.47
2022-11-15T10:11:30.332Z,1000.42
2022-11-15T10:12:00.560Z,1000.37
2022-11-15T10:13:00.552Z,1000.32
2022-11-15T10:14:00.573Z,1000.32
2022-11-15T10:15:00.580Z,1000.31
2022-11-15T10:16:00.591Z,1000.29
2022-11-15T10:17:00.596Z,1000.27
2022-11-15T10:18:00.619Z,1000.31
2022-11-15T10:19:00.626Z,1000.27
2022-11-15T10:20:05.227Z,1000.28
2022-11-15T10:21:00.650Z,1000.29
2022-11-15T10:22:00.673Z,1000.33
2022-11-15T10:23:00.667Z,1000.32
2022-11-15T10:24:00.706Z,1000.3
2022-11-15T10:25:00.696Z,1000.28
2022-11-15T10:26:05.411Z,1000.29
2022-11-15T10:27:00.728Z,1000.31
2022-11-15T10:28:00.793Z,1000.31
2022-11-15T10:29:00.748Z,1000.34
2022-11-15T10:30:00.755Z,1000.35
2022-11-15T10:31:00.790Z,1000.36
2022-11-15T10:32:00.798Z,1000.33
2022-11-15T10:33:00.799Z,1000.35
2022-11-15T10:34:00.825Z,1000.33
2022-11-15T10:35:00.822Z,1000.31
2022-11-15T10:36:00.841Z,1000.23
2022-11-15T10:37:00.844Z,1000.24
2022-11-15T10:38:00.868Z,1000.2
2022-11-15T10:39:00.880Z,1000.2
2022-11-15T10:40:00.891Z,1000.13
2022-11-15T10:41:01.236Z,1000.12
2022-11-15T10:42:02.831Z,1000.18
2022-11-15T10:43:00.925Z,1000.1
2022-11-15T10:44:00.969Z,1000.11
2022-11-15T10:45:00.957Z,1000.09
2022-11-15T10:46:09.172Z,1000.09
